sensor_id;sensor_type;location;lat;lon;timestamp;temperature;humidity
41644;DHT22;44236;48.098;11.582;2024-02-28T00:02:10;18.80;46.10
41644;DHT22;44236;48.098;11.582;2024-02-28T00:04:36;18.80;46.10
41644;DHT22;44236;48.098;11.582;2024-02-28T00:07:02;18.80;46.10
41644;DHT22;44236;48.098;11.582;2024-02-28T00:09:27;18.80;46.00
41644;DHT22;44236;48.098;11.582;2024-02-28T00:11:53;18.70;45.90
41644;DHT22;44236;48.098;11.582;2024-02-28T00:14:18;18.80;46.20
41644;DHT22;44236;48.098;11.582;2024-02-28T00:16:45;18.80;46.10
41644;DHT22;44236;48.098;11.582;2024-02-28T00:19:11;18.80;45.90
41644;DHT22;44236;48.098;11.582;2024-02-28T00:21:38;18.80;45.90
41644;DHT22;44236;48.098;11.582;2024-02-28T00:24:04;18.80;46.00
41644;DHT22;44236;48.098;11.582;2024-02-28T00:26:29;18.70;46.00
41644;DHT22;44236;48.098;11.582;2024-02-28T00:28:55;18.70;45.90
41644;DHT22;44236;48.098;11.582;2024-02-28T00:31:22;18.70;46.00
41644;DHT22;44236;48.098;11.582;2024-02-28T00:33:47;18.70;45.80
41644;DHT22;44236;48.098;11.582;2024-02-28T00:36:13;18.70;45.90
41644;DHT22;44236;48.098;11.582;2024-02-28T00:38:41;18.70;45.80
41644;DHT22;44236;48.098;11.582;2024-02-28T00:41:06;18.70;45.70
41644;DHT22;44236;48.098;11.582;2024-02-28T00:43:32;18.70;46.00
41644;DHT22;44236;48.098;11.582;2024-02-28T00:45:57;18.70;46.00
41644;DHT22;44236;48.098;11.582;2024-02-28T00:48:25;18.60;45.90
41644;DHT22;44236;48.098;11.582;2024-02-28T00:50:50;18.60;45.90
41644;DHT22;44236;48.098;11.582;2024-02-28T00:53:17;18.60;45.90
41644;DHT22;44236;48.098;11.582;2024-02-28T00:55:43;18.60;45.90
41644;DHT22;44236;48.098;11.582;2024-02-28T00:58:08;18.60;45.70
41644;DHT22;44236;48.098;11.582;2024-02-28T01:00:34;18.60;45.90
41644;DHT22;44236;48.098;11.582;2024-02-28T01:03:00;18.60;45.90
41644;DHT22;44236;48.098;11.582;2024-02-28T01:05:29;18.60;45.90
41644;DHT22;44236;48.098;11.582;2024-02-28T01:07:55;18.60;45.90
41644;DHT22;44236;48.098;11.582;2024-02-28T01:10:20;18.60;45.80
41644;DHT22;44236;48.098;11.582;2024-02-28T01:12:46;18.60;45.80
41644;DHT22;44236;48.098;11.582;2024-02-28T01:15:12;18.60;45.90
41644;DHT22;44236;48.098;11.582;2024-02-28T01:17:38;18.60;45.80
41644;DHT22;44236;48.098;11.582;2024-02-28T01:20:07;18.90;46.00
41644;DHT22;44236;48.098;11.582;2024-02-28T01:22:34;18.60;45.80
41644;DHT22;44236;48.098;11.582;2024-02-28T01:24:59;18.50;45.70
41644;DHT22;44236;48.098;11.582;2024-02-28T01:27:25;18.50;45.80
41644;DHT22;44236;48.098;11.582;2024-02-28T01:29:51;18.50;45.90
41644;DHT22;44236;48.098;11.582;2024-02-28T01:32:18;18.50;45.80
41644;DHT22;44236;48.098;11.582;2024-02-28T01:34:44;18.50;45.90
41644;DHT22;44236;48.098;11.582;2024-02-28T01:37:10;18.50;45.90
41644;DHT22;44236;48.098;11.582;2024-02-28T01:39:36;18.50;46.00
41644;DHT22;44236;48.098;11.582;2024-02-28T01:42:01;18.50;46.00
41644;DHT22;44236;48.098;11.582;2024-02-28T01:44:27;18.50;45.90
41644;DHT22;44236;48.098;11.582;2024-02-28T01:46:53;18.50;46.00
41644;DHT22;44236;48.098;11.582;2024-02-28T01:49:22;18.50;46.00
41644;DHT22;44236;48.098;11.582;2024-02-28T01:51:49;18.50;45.90
41644;DHT22;44236;48.098;11.582;2024-02-28T01:54:16;18.50;45.90
41644;DHT22;44236;48.098;11.582;2024-02-28T01:56:43;18.50;46.10
41644;DHT22;44236;48.098;11.582;2024-02-28T01:59:10;18.50;46.10
41644;DHT22;44236;48.098;11.582;2024-02-28T02:01:37;18.50;46.10
41644;DHT22;44236;48.098;11.582;2024-02-28T02:04:03;18.50;46.00
41644;DHT22;44236;48.098;11.582;2024-02-28T02:06:29;18.50;46.10
41644;DHT22;44236;48.098;11.582;2024-02-28T02:08:55;18.40;46.00
41644;DHT22;44236;48.098;11.582;2024-02-28T02:11:21;18.50;46.00
41644;DHT22;44236;48.098;11.582;2024-02-28T02:13:51;18.40;46.00
41644;DHT22;44236;48.098;11.582;2024-02-28T02:16:19;18.40;46.00
41644;DHT22;44236;48.098;11.582;2024-02-28T02:18:46;18.40;45.90
41644;DHT22;44236;48.098;11.582;2024-02-28T02:21:15;18.40;45.90
41644;DHT22;44236;48.098;11.582;2024-02-28T02:23:42;18.40;46.00
41644;DHT22;44236;48.098;11.582;2024-02-28T02:26:08;18.50;46.10
41644;DHT22;44236;48.098;11.582;2024-02-28T02:28:34;18.40;45.90
41644;DHT22;44236;48.098;11.582;2024-02-28T02:30:59;18.40;45.80
41644;DHT22;44236;48.098;11.582;2024-02-28T02:33:25;18.40;45.90
41644;DHT22;44236;48.098;11.582;2024-02-28T02:35:52;18.40;45.90
41644;DHT22;44236;48.098;11.582;2024-02-28T02:38:18;18.40;45.90
41644;DHT22;44236;48.098;11.582;2024-02-28T02:40:47;18.40;46.00
41644;DHT22;44236;48.098;11.582;2024-02-28T02:43:14;18.40;46.00
41644;DHT22;44236;48.098;11.582;2024-02-28T02:45:39;18.40;45.90
41644;DHT22;44236;48.098;11.582;2024-02-28T02:48:05;18.40;46.00
41644;DHT22;44236;48.098;11.582;2024-02-28T02:50:31;18.40;45.90
41644;DHT22;44236;48.098;11.582;2024-02-28T02:52:56;18.40;45.90
41644;DHT22;44236;48.098;11.582;2024-02-28T02:55:22;18.40;45.80
41644;DHT22;44236;48.098;11.582;2024-02-28T02:57:47;18.40;45.90
41644;DHT22;44236;48.098;11.582;2024-02-28T03:00:13;18.40;45.90
41644;DHT22;44236;48.098;11.582;2024-02-28T03:02:39;18.40;46.00
41644;DHT22;44236;48.098;11.582;2024-02-28T03:05:05;18.40;45.90
41644;DHT22;44236;48.098;11.582;2024-02-28T03:07:32;18.40;45.80
41644;DHT22;44236;48.098;11.582;2024-02-28T03:09:58;18.40;45.80
41644;DHT22;44236;48.098;11.582;2024-02-28T03:12:23;18.40;45.80
41644;DHT22;44236;48.098;11.582;2024-02-28T03:14:49;18.40;45.90
41644;DHT22;44236;48.098;11.582;2024-02-28T03:17:14;18.40;45.90
41644;DHT22;44236;48.098;11.582;2024-02-28T03:19:41;18.40;45.80
41644;DHT22;44236;48.098;11.582;2024-02-28T03:22:07;18.40;45.80
41644;DHT22;44236;48.098;11.582;2024-02-28T03:24:32;18.40;45.90
41644;DHT22;44236;48.098;11.582;2024-02-28T03:27:01;18.40;45.80
41644;DHT22;44236;48.098;11.582;2024-02-28T03:29:27;18.40;45.90
41644;DHT22;44236;48.098;11.582;2024-02-28T03:31:53;18.40;45.90
41644;DHT22;44236;48.098;11.582;2024-02-28T03:34:18;18.40;45.80
41644;DHT22;44236;48.098;11.582;2024-02-28T03:36:44;18.40;45.80
41644;DHT22;44236;48.098;11.582;2024-02-28T03:39:10;18.40;45.80
41644;DHT22;44236;48.098;11.582;2024-02-28T03:41:35;18.40;45.80
41644;DHT22;44236;48.098;11.582;2024-02-28T03:44:01;18.40;45.80
41644;DHT22;44236;48.098;11.582;2024-02-28T03:46:27;18.40;45.80
41644;DHT22;44236;48.098;11.582;2024-02-28T03:48:52;18.40;45.80
41644;DHT22;44236;48.098;11.582;2024-02-28T03:51:18;18.40;45.80
41644;DHT22;44236;48.098;11.582;2024-02-28T03:53:44;18.40;45.80
41644;DHT22;44236;48.098;11.582;2024-02-28T03:56:09;18.40;45.70
41644;DHT22;44236;48.098;11.582;2024-02-28T03:58:35;18.40;45.70
41644;DHT22;44236;48.098;11.582;2024-02-28T04:01:01;18.40;45.70
41644;DHT22;44236;48.098;11.582;2024-02-28T04:03:26;18.40;45.50
41644;DHT22;44236;48.098;11.582;2024-02-28T04:05:52;18.40;45.40
41644;DHT22;44236;48.098;11.582;2024-02-28T04:08:17;18.50;45.50
41644;DHT22;44236;48.098;11.582;2024-02-28T04:10:43;18.50;45.40
41644;DHT22;44236;48.098;11.582;2024-02-28T04:13:09;18.50;45.40
41644;DHT22;44236;48.098;11.582;2024-02-28T04:15:35;18.50;45.50
41644;DHT22;44236;48.098;11.582;2024-02-28T04:18:01;18.60;45.40
41644;DHT22;44236;48.098;11.582;2024-02-28T04:20:26;18.50;45.30
41644;DHT22;44236;48.098;11.582;2024-02-28T04:22:52;18.50;45.30
41644;DHT22;44236;48.098;11.582;2024-02-28T04:25:17;18.60;45.50
41644;DHT22;44236;48.098;11.582;2024-02-28T04:27:43;18.60;45.50
41644;DHT22;44236;48.098;11.582;2024-02-28T04:30:09;18.60;45.50
41644;DHT22;44236;48.098;11.582;2024-02-28T04:32:36;18.60;45.40
41644;DHT22;44236;48.098;11.582;2024-02-28T04:35:01;18.60;45.40
41644;DHT22;44236;48.098;11.582;2024-02-28T04:37:28;18.60;45.30
41644;DHT22;44236;48.098;11.582;2024-02-28T04:39:54;18.60;45.10
41644;DHT22;44236;48.098;11.582;2024-02-28T04:42:19;18.70;44.90
41644;DHT22;44236;48.098;11.582;2024-02-28T04:44:45;18.70;45.00
41644;DHT22;44236;48.098;11.582;2024-02-28T04:47:11;18.70;45.20
41644;DHT22;44236;48.098;11.582;2024-02-28T04:49:37;18.70;45.30
41644;DHT22;44236;48.098;11.582;2024-02-28T04:52:04;18.70;45.20
41644;DHT22;44236;48.098;11.582;2024-02-28T04:54:30;18.70;45.20
41644;DHT22;44236;48.098;11.582;2024-02-28T04:56:55;18.80;45.20
41644;DHT22;44236;48.098;11.582;2024-02-28T04:59:21;18.80;45.20
41644;DHT22;44236;48.098;11.582;2024-02-28T05:01:47;18.70;45.10
41644;DHT22;44236;48.098;11.582;2024-02-28T05:04:13;18.80;45.20
41644;DHT22;44236;48.098;11.582;2024-02-28T05:06:39;18.80;45.10
41644;DHT22;44236;48.098;11.582;2024-02-28T05:09:05;18.80;45.10
41644;DHT22;44236;48.098;11.582;2024-02-28T05:11:31;18.80;44.90
41644;DHT22;44236;48.098;11.582;2024-02-28T05:13:57;18.80;44.80
41644;DHT22;44236;48.098;11.582;2024-02-28T05:16:23;18.90;44.80
41644;DHT22;44236;48.098;11.582;2024-02-28T05:18:48;18.80;44.70
41644;DHT22;44236;48.098;11.582;2024-02-28T05:21:14;18.90;44.80
41644;DHT22;44236;48.098;11.582;2024-02-28T05:23:40;18.90;44.70
41644;DHT22;44236;48.098;11.582;2024-02-28T05:26:06;18.90;45.70
41644;DHT22;44236;48.098;11.582;2024-02-28T05:28:35;18.90;45.20
41644;DHT22;44236;48.098;11.582;2024-02-28T05:31:20;19.00;45.40
41644;DHT22;44236;48.098;11.582;2024-02-28T05:33:46;19.20;45.50
41644;DHT22;44236;48.098;11.582;2024-02-28T05:36:12;19.40;44.80
41644;DHT22;44236;48.098;11.582;2024-02-28T05:38:38;19.70;44.40
41644;DHT22;44236;48.098;11.582;2024-02-28T05:41:03;20.00;44.20
41644;DHT22;44236;48.098;11.582;2024-02-28T05:43:29;20.40;43.90
41644;DHT22;44236;48.098;11.582;2024-02-28T05:45:54;20.70;43.50
41644;DHT22;44236;48.098;11.582;2024-02-28T05:48:20;21.00;42.70
41644;DHT22;44236;48.098;11.582;2024-02-28T05:50:46;21.30;42.70
41644;DHT22;44236;48.098;11.582;2024-02-28T05:53:11;21.70;41.90
41644;DHT22;44236;48.098;11.582;2024-02-28T05:55:37;22.00;41.70
41644;DHT22;44236;48.098;11.582;2024-02-28T05:58:02;22.30;41.30
41644;DHT22;44236;48.098;11.582;2024-02-28T06:00:28;22.60;41.00
41644;DHT22;44236;48.098;11.582;2024-02-28T06:02:54;22.80;40.50
41644;DHT22;44236;48.098;11.582;2024-02-28T06:05:21;23.00;40.40
41644;DHT22;44236;48.098;11.582;2024-02-28T06:07:46;23.30;39.50
41644;DHT22;44236;48.098;11.582;2024-02-28T06:10:12;23.40;39.20
41644;DHT22;44236;48.098;11.582;2024-02-28T06:12:37;23.40;38.80
41644;DHT22;44236;48.098;11.582;2024-02-28T06:15:04;23.40;38.70
41644;DHT22;44236;48.098;11.582;2024-02-28T06:17:30;23.40;38.60
41644;DHT22;44236;48.098;11.582;2024-02-28T06:19:56;23.30;39.20
41644;DHT22;44236;48.098;11.582;2024-02-28T06:22:21;23.20;38.60
41644;DHT22;44236;48.098;11.582;2024-02-28T06:24:47;23.10;38.70
41644;DHT22;44236;48.098;11.582;2024-02-28T06:27:12;23.00;38.80
41644;DHT22;44236;48.098;11.582;2024-02-28T06:29:41;22.80;39.20
41644;DHT22;44236;48.098;11.582;2024-02-28T06:32:07;22.70;39.30
41644;DHT22;44236;48.098;11.582;2024-02-28T06:34:32;22.60;39.50
41644;DHT22;44236;48.098;11.582;2024-02-28T06:36:58;22.50;39.70
41644;DHT22;44236;48.098;11.582;2024-02-28T06:39:24;22.40;39.90
41644;DHT22;44236;48.098;11.582;2024-02-28T06:41:49;22.30;40.10
41644;DHT22;44236;48.098;11.582;2024-02-28T06:44:19;22.20;40.20
41644;DHT22;44236;48.098;11.582;2024-02-28T06:46:45;22.10;40.40
41644;DHT22;44236;48.098;11.582;2024-02-28T06:49:10;22.00;40.50
41644;DHT22;44236;48.098;11.582;2024-02-28T06:51:36;22.00;40.60
41644;DHT22;44236;48.098;11.582;2024-02-28T06:54:02;21.90;40.70
41644;DHT22;44236;48.098;11.582;2024-02-28T06:56:28;21.80;41.00
41644;DHT22;44236;48.098;11.582;2024-02-28T06:58:54;21.70;41.00
41644;DHT22;44236;48.098;11.582;2024-02-28T07:01:20;21.60;41.10
41644;DHT22;44236;48.098;11.582;2024-02-28T07:03:46;21.60;41.10
41644;DHT22;44236;48.098;11.582;2024-02-28T07:06:11;21.50;41.20
41644;DHT22;44236;48.098;11.582;2024-02-28T07:08:37;21.50;41.40
41644;DHT22;44236;48.098;11.582;2024-02-28T07:11:03;21.40;41.60
41644;DHT22;44236;48.098;11.582;2024-02-28T07:13:29;21.40;42.00
41644;DHT22;44236;48.098;11.582;2024-02-28T07:15:55;21.30;42.30
41644;DHT22;44236;48.098;11.582;2024-02-28T07:18:23;21.20;42.40
41644;DHT22;44236;48.098;11.582;2024-02-28T07:20:51;21.20;42.50
41644;DHT22;44236;48.098;11.582;2024-02-28T07:23:17;21.10;42.50
41644;DHT22;44236;48.098;11.582;2024-02-28T07:25:43;21.10;42.50
41644;DHT22;44236;48.098;11.582;2024-02-28T07:28:08;21.10;42.70
41644;DHT22;44236;48.098;11.582;2024-02-28T07:30:34;21.00;42.80
41644;DHT22;44236;48.098;11.582;2024-02-28T07:33:01;21.00;42.90
41644;DHT22;44236;48.098;11.582;2024-02-28T07:35:26;21.00;42.90
41644;DHT22;44236;48.098;11.582;2024-02-28T07:37:52;20.90;42.90
41644;DHT22;44236;48.098;11.582;2024-02-28T07:40:17;20.90;43.40
41644;DHT22;44236;48.098;11.582;2024-02-28T07:42:44;20.80;43.10
41644;DHT22;44236;48.098;11.582;2024-02-28T07:45:09;20.70;43.60
41644;DHT22;44236;48.098;11.582;2024-02-28T07:47:35;20.70;43.60
41644;DHT22;44236;48.098;11.582;2024-02-28T07:50:02;20.70;43.60
41644;DHT22;44236;48.098;11.582;2024-02-28T07:52:28;20.70;43.30
41644;DHT22;44236;48.098;11.582;2024-02-28T07:54:53;20.60;43.30
41644;DHT22;44236;48.098;11.582;2024-02-28T07:57:19;20.70;43.30
41644;DHT22;44236;48.098;11.582;2024-02-28T07:59:44;20.60;43.30
41644;DHT22;44236;48.098;11.582;2024-02-28T08:02:10;20.60;43.10
41644;DHT22;44236;48.098;11.582;2024-02-28T08:04:39;20.50;43.00
41644;DHT22;44236;48.098;11.582;2024-02-28T08:07:05;20.50;43.20
41644;DHT22;44236;48.098;11.582;2024-02-28T08:09:31;20.50;43.20
41644;DHT22;44236;48.098;11.582;2024-02-28T08:11:57;20.50;43.10
41644;DHT22;44236;48.098;11.582;2024-02-28T08:14:24;20.50;43.40
41644;DHT22;44236;48.098;11.582;2024-02-28T08:16:50;20.50;43.60
41644;DHT22;44236;48.098;11.582;2024-02-28T08:19:15;20.50;43.50
41644;DHT22;44236;48.098;11.582;2024-02-28T08:21:42;20.40;43.60
41644;DHT22;44236;48.098;11.582;2024-02-28T08:24:08;20.40;43.60
41644;DHT22;44236;48.098;11.582;2024-02-28T08:26:34;20.40;43.80
41644;DHT22;44236;48.098;11.582;2024-02-28T08:29:01;20.30;43.80
41644;DHT22;44236;48.098;11.582;2024-02-28T08:31:28;20.70;44.10
41644;DHT22;44236;48.098;11.582;2024-02-28T08:33:53;20.30;43.90
41644;DHT22;44236;48.098;11.582;2024-02-28T08:36:21;20.20;43.90
41644;DHT22;44236;48.098;11.582;2024-02-28T08:38:46;20.20;43.90
41644;DHT22;44236;48.098;11.582;2024-02-28T08:41:12;20.20;44.00
41644;DHT22;44236;48.098;11.582;2024-02-28T08:43:39;20.10;43.80
41644;DHT22;44236;48.098;11.582;2024-02-28T08:46:05;20.10;44.00
41644;DHT22;44236;48.098;11.582;2024-02-28T08:48:31;20.10;44.00
41644;DHT22;44236;48.098;11.582;2024-02-28T08:50:57;20.10;44.00
41644;DHT22;44236;48.098;11.582;2024-02-28T08:53:23;20.10;43.60
41644;DHT22;44236;48.098;11.582;2024-02-28T08:55:48;20.00;44.00
41644;DHT22;44236;48.098;11.582;2024-02-28T08:58:14;20.00;44.00
41644;DHT22;44236;48.098;11.582;2024-02-28T09:00:40;20.00;43.90
41644;DHT22;44236;48.098;11.582;2024-02-28T09:03:05;20.00;44.10
41644;DHT22;44236;48.098;11.582;2024-02-28T09:05:31;20.00;44.00
41644;DHT22;44236;48.098;11.582;2024-02-28T09:07:57;19.90;44.00
41644;DHT22;44236;48.098;11.582;2024-02-28T09:10:23;19.90;43.90
41644;DHT22;44236;48.098;11.582;2024-02-28T09:12:50;19.90;43.90
41644;DHT22;44236;48.098;11.582;2024-02-28T09:15:16;19.90;44.00
41644;DHT22;44236;48.098;11.582;2024-02-28T09:17:42;19.90;44.00
41644;DHT22;44236;48.098;11.582;2024-02-28T09:20:07;19.80;44.00
41644;DHT22;44236;48.098;11.582;2024-02-28T09:22:34;19.90;43.90
41644;DHT22;44236;48.098;11.582;2024-02-28T09:25:00;19.90;43.90
41644;DHT22;44236;48.098;11.582;2024-02-28T09:27:32;19.80;44.00
41644;DHT22;44236;48.098;11.582;2024-02-28T09:29:58;19.80;44.00
41644;DHT22;44236;48.098;11.582;2024-02-28T09:32:24;19.80;43.80
41644;DHT22;44236;48.098;11.582;2024-02-28T09:34:49;19.80;43.90
41644;DHT22;44236;48.098;11.582;2024-02-28T09:37:15;19.80;43.80
41644;DHT22;44236;48.098;11.582;2024-02-28T09:39:42;19.70;43.80
41644;DHT22;44236;48.098;11.582;2024-02-28T09:42:09;19.70;43.90
41644;DHT22;44236;48.098;11.582;2024-02-28T09:44:36;19.70;43.90
41644;DHT22;44236;48.098;11.582;2024-02-28T09:47:02;19.70;43.80
41644;DHT22;44236;48.098;11.582;2024-02-28T09:49:28;19.70;43.90
41644;DHT22;44236;48.098;11.582;2024-02-28T09:51:57;19.60;43.90
41644;DHT22;44236;48.098;11.582;2024-02-28T09:54:24;19.60;43.80
41644;DHT22;44236;48.098;11.582;2024-02-28T09:56:50;19.60;43.90
41644;DHT22;44236;48.098;11.582;2024-02-28T09:59:18;19.60;44.00
41644;DHT22;44236;48.098;11.582;2024-02-28T10:01:55;19.60;43.90
41644;DHT22;44236;48.098;11.582;2024-02-28T10:04:21;19.60;43.90
41644;DHT22;44236;48.098;11.582;2024-02-28T10:06:48;19.60;43.80
41644;DHT22;44236;48.098;11.582;2024-02-28T10:09:15;19.50;43.90
41644;DHT22;44236;48.098;11.582;2024-02-28T10:11:41;19.50;43.80
41644;DHT22;44236;48.098;11.582;2024-02-28T10:14:09;19.50;43.90
41644;DHT22;44236;48.098;11.582;2024-02-28T10:16:35;19.50;43.90
41644;DHT22;44236;48.098;11.582;2024-02-28T10:19:00;19.50;43.80
41644;DHT22;44236;48.098;11.582;2024-02-28T10:21:26;19.50;43.90
41644;DHT22;44236;48.098;11.582;2024-02-28T10:23:52;19.50;43.90
41644;DHT22;44236;48.098;11.582;2024-02-28T10:26:17;19.50;44.00
41644;DHT22;44236;48.098;11.582;2024-02-28T10:28:43;19.50;44.00
41644;DHT22;44236;48.098;11.582;2024-02-28T10:31:11;19.40;43.90
41644;DHT22;44236;48.098;11.582;2024-02-28T10:33:37;19.40;43.90
41644;DHT22;44236;48.098;11.582;2024-02-28T10:36:04;19.40;44.00
41644;DHT22;44236;48.098;11.582;2024-02-28T10:38:31;19.40;43.90
41644;DHT22;44236;48.098;11.582;2024-02-28T10:41:02;19.40;43.90
41644;DHT22;44236;48.098;11.582;2024-02-28T10:43:28;19.40;43.80
41644;DHT22;44236;48.098;11.582;2024-02-28T10:45:59;19.40;43.90
41644;DHT22;44236;48.098;11.582;2024-02-28T10:48:26;19.40;43.90
41644;DHT22;44236;48.098;11.582;2024-02-28T10:50:52;19.40;43.80
41644;DHT22;44236;48.098;11.582;2024-02-28T10:53:42;19.40;43.90
41644;DHT22;44236;48.098;11.582;2024-02-28T10:56:10;19.40;44.00
41644;DHT22;44236;48.098;11.582;2024-02-28T10:58:37;19.30;43.80
41644;DHT22;44236;48.098;11.582;2024-02-28T11:01:06;19.30;43.90
41644;DHT22;44236;48.098;11.582;2024-02-28T11:03:33;19.30;43.80
41644;DHT22;44236;48.098;11.582;2024-02-28T11:06:00;19.30;43.90
41644;DHT22;44236;48.098;11.582;2024-02-28T11:08:27;19.30;43.80
41644;DHT22;44236;48.098;11.582;2024-02-28T11:11:03;19.30;44.00
41644;DHT22;44236;48.098;11.582;2024-02-28T11:13:33;19.30;43.80
41644;DHT22;44236;48.098;11.582;2024-02-28T11:16:09;19.30;43.80
41644;DHT22;44236;48.098;11.582;2024-02-28T11:18:35;19.30;43.80
41644;DHT22;44236;48.098;11.582;2024-02-28T11:21:01;19.30;44.00
41644;DHT22;44236;48.098;11.582;2024-02-28T11:23:35;19.30;43.90
41644;DHT22;44236;48.098;11.582;2024-02-28T11:26:03;19.20;43.90
41644;DHT22;44236;48.098;11.582;2024-02-28T11:28:29;19.20;43.80
41644;DHT22;44236;48.098;11.582;2024-02-28T11:30:54;19.20;43.90
41644;DHT22;44236;48.098;11.582;2024-02-28T11:33:20;19.20;43.90
41644;DHT22;44236;48.098;11.582;2024-02-28T11:35:56;19.20;43.90
41644;DHT22;44236;48.098;11.582;2024-02-28T11:38:27;19.20;43.90
41644;DHT22;44236;48.098;11.582;2024-02-28T11:40:53;19.20;43.90
41644;DHT22;44236;48.098;11.582;2024-02-28T11:43:20;19.20;43.90
41644;DHT22;44236;48.098;11.582;2024-02-28T11:45:46;19.20;43.80
41644;DHT22;44236;48.098;11.582;2024-02-28T11:48:16;19.20;43.90
41644;DHT22;44236;48.098;11.582;2024-02-28T11:50:42;19.20;43.90
41644;DHT22;44236;48.098;11.582;2024-02-28T11:53:08;19.20;43.80
41644;DHT22;44236;48.098;11.582;2024-02-28T11:55:34;18.50;43.60
41644;DHT22;44236;48.098;11.582;2024-02-28T11:57:59;19.20;43.90
41644;DHT22;44236;48.098;11.582;2024-02-28T12:00:26;19.20;43.90
41644;DHT22;44236;48.098;11.582;2024-02-28T12:02:52;19.20;43.90
41644;DHT22;44236;48.098;11.582;2024-02-28T12:05:19;19.20;43.80
41644;DHT22;44236;48.098;11.582;2024-02-28T12:07:45;19.10;43.80
41644;DHT22;44236;48.098;11.582;2024-02-28T12:10:13;19.10;43.90
41644;DHT22;44236;48.098;11.582;2024-02-28T12:12:39;19.10;43.40
41644;DHT22;44236;48.098;11.582;2024-02-28T12:15:05;19.10;43.90
41644;DHT22;44236;48.098;11.582;2024-02-28T12:17:31;19.10;43.90
41644;DHT22;44236;48.098;11.582;2024-02-28T12:20:00;19.10;43.90
41644;DHT22;44236;48.098;11.582;2024-02-28T12:22:26;19.10;43.90
41644;DHT22;44236;48.098;11.582;2024-02-28T12:24:52;19.10;43.80
41644;DHT22;44236;48.098;11.582;2024-02-28T12:27:17;19.10;43.80
41644;DHT22;44236;48.098;11.582;2024-02-28T12:29:43;19.10;43.90
41644;DHT22;44236;48.098;11.582;2024-02-28T12:32:09;19.00;43.80
41644;DHT22;44236;48.098;11.582;2024-02-28T12:34:35;19.10;43.80
41644;DHT22;44236;48.098;11.582;2024-02-28T12:37:01;19.00;43.80
41644;DHT22;44236;48.098;11.582;2024-02-28T12:39:26;19.00;43.80
41644;DHT22;44236;48.098;11.582;2024-02-28T12:41:52;19.00;43.80
41644;DHT22;44236;48.098;11.582;2024-02-28T12:44:18;19.00;43.80
41644;DHT22;44236;48.098;11.582;2024-02-28T12:46:43;19.00;43.80
41644;DHT22;44236;48.098;11.582;2024-02-28T12:49:09;19.00;43.80
41644;DHT22;44236;48.098;11.582;2024-02-28T12:51:41;19.00;43.80
41644;DHT22;44236;48.098;11.582;2024-02-28T12:54:08;19.00;43.90
41644;DHT22;44236;48.098;11.582;2024-02-28T12:56:38;19.00;43.80
41644;DHT22;44236;48.098;11.582;2024-02-28T12:59:04;19.00;43.90
41644;DHT22;44236;48.098;11.582;2024-02-28T13:01:31;19.00;43.80
41644;DHT22;44236;48.098;11.582;2024-02-28T13:03:57;19.00;43.80
41644;DHT22;44236;48.098;11.582;2024-02-28T13:06:22;19.00;43.90
41644;DHT22;44236;48.098;11.582;2024-02-28T13:08:48;18.90;43.90
41644;DHT22;44236;48.098;11.582;2024-02-28T13:11:21;19.00;44.00
41644;DHT22;44236;48.098;11.582;2024-02-28T13:13:48;18.90;44.50
41644;DHT22;44236;48.098;11.582;2024-02-28T13:16:15;19.00;44.20
41644;DHT22;44236;48.098;11.582;2024-02-28T13:18:40;19.00;44.20
41644;DHT22;44236;48.098;11.582;2024-02-28T13:21:06;19.00;44.20
41644;DHT22;44236;48.098;11.582;2024-02-28T13:23:32;19.00;44.20
41644;DHT22;44236;48.098;11.582;2024-02-28T13:25:59;19.00;44.20
41644;DHT22;44236;48.098;11.582;2024-02-28T13:28:26;19.00;44.20
41644;DHT22;44236;48.098;11.582;2024-02-28T13:33:23;19.00;44.10
41644;DHT22;44236;48.098;11.582;2024-02-28T13:35:49;19.00;44.20
41644;DHT22;44236;48.098;11.582;2024-02-28T13:38:14;19.00;44.40
41644;DHT22;44236;48.098;11.582;2024-02-28T13:40:40;19.00;44.10
41644;DHT22;44236;48.098;11.582;2024-02-28T13:43:06;19.00;44.20
41644;DHT22;44236;48.098;11.582;2024-02-28T13:45:32;19.00;44.10
41644;DHT22;44236;48.098;11.582;2024-02-28T13:47:58;19.00;44.20
41644;DHT22;44236;48.098;11.582;2024-02-28T13:50:23;19.00;44.20
41644;DHT22;44236;48.098;11.582;2024-02-28T13:52:57;19.00;44.10
41644;DHT22;44236;48.098;11.582;2024-02-28T13:55:22;19.00;44.10
41644;DHT22;44236;48.098;11.582;2024-02-28T13:57:48;19.00;44.10
41644;DHT22;44236;48.098;11.582;2024-02-28T14:00:14;19.00;44.10
41644;DHT22;44236;48.098;11.582;2024-02-28T14:02:40;19.00;44.20
41644;DHT22;44236;48.098;11.582;2024-02-28T14:05:06;19.00;44.10
41644;DHT22;44236;48.098;11.582;2024-02-28T14:07:33;19.00;44.00
41644;DHT22;44236;48.098;11.582;2024-02-28T14:10:01;19.00;44.00
41644;DHT22;44236;48.098;11.582;2024-02-28T14:12:27;19.00;44.00
41644;DHT22;44236;48.098;11.582;2024-02-28T14:14:52;19.00;44.10
41644;DHT22;44236;48.098;11.582;2024-02-28T14:17:18;19.50;44.30
41644;DHT22;44236;48.098;11.582;2024-02-28T14:19:43;19.10;44.10
41644;DHT22;44236;48.098;11.582;2024-02-28T14:22:10;19.00;44.00
41644;DHT22;44236;48.098;11.582;2024-02-28T14:24:39;19.00;44.00
41644;DHT22;44236;48.098;11.582;2024-02-28T14:27:05;19.90;44.50
41644;DHT22;44236;48.098;11.582;2024-02-28T14:29:31;19.00;44.00
41644;DHT22;44236;48.098;11.582;2024-02-28T14:31:56;19.10;44.10
41644;DHT22;44236;48.098;11.582;2024-02-28T14:34:22;19.10;44.10
41644;DHT22;44236;48.098;11.582;2024-02-28T14:36:48;19.10;44.00
41644;DHT22;44236;48.098;11.582;2024-02-28T14:39:15;19.00;44.00
41644;DHT22;44236;48.098;11.582;2024-02-28T14:41:44;19.10;44.00
41644;DHT22;44236;48.098;11.582;2024-02-28T14:44:10;19.10;44.00
41644;DHT22;44236;48.098;11.582;2024-02-28T14:46:36;19.10;44.00
41644;DHT22;44236;48.098;11.582;2024-02-28T14:49:02;19.10;43.90
41644;DHT22;44236;48.098;11.582;2024-02-28T14:51:28;19.10;44.00
41644;DHT22;44236;48.098;11.582;2024-02-28T14:53:55;19.10;43.90
41644;DHT22;44236;48.098;11.582;2024-02-28T14:56:21;19.10;44.00
41644;DHT22;44236;48.098;11.582;2024-02-28T14:58:47;19.10;43.90
41644;DHT22;44236;48.098;11.582;2024-02-28T15:01:13;19.10;43.80
41644;DHT22;44236;48.098;11.582;2024-02-28T15:03:39;19.10;43.80
41644;DHT22;44236;48.098;11.582;2024-02-28T15:06:06;19.10;43.80
41644;DHT22;44236;48.098;11.582;2024-02-28T15:08:31;19.10;43.70
41644;DHT22;44236;48.098;11.582;2024-02-28T15:10:57;19.10;43.80
41644;DHT22;44236;48.098;11.582;2024-02-28T15:13:22;19.10;43.80